Time;durP1;ratioP1;P1;durP2;ratioP2;P2;SDS_P1;SDS_P2;PMS_P1;PMS_P2;Temp;Humidity;BMP_temperature;BMP_pressure;BME280_temperature;BME280_humidity;BME280_pressure;Samples;Min_cycle;Max_cycle;Signal;HPM_P1;HPM_P2
2021/10/30 00:00:54;;;;;;;10.75;9.02;;;4.60;99.90;;;;;;5007682;28;20029;-84
2021/10/30 00:03:20;;;;;;;11.65;9.70;;;4.70;99.90;;;;;;5023232;28;20486;-83
2021/10/30 00:05:46;;;;;;;10.55;8.98;;;4.70;99.90;;;;;;5006964;28;20030;-83
2021/10/30 00:08:13;;;;;;;10.80;8.85;;;4.80;99.90;;;;;;5024276;28;20014;-83
2021/10/30 00:10:39;;;;;;;12.20;10.13;;;4.90;99.90;;;;;;5024656;28;20398;-84
2021/10/30 00:13:04;;;;;;;11.93;9.95;;;4.80;99.90;;;;;;5023380;28;20029;-84
2021/10/30 00:15:30;;;;;;;14.75;11.70;;;4.70;99.90;;;;;;5002111;28;20065;-84
2021/10/30 00:17:57;;;;;;;14.18;11.68;;;4.70;99.90;;;;;;5004584;28;20022;-83
2021/10/30 00:20:23;;;;;;;15.35;12.60;;;4.60;99.90;;;;;;5004891;28;20022;-84
2021/10/30 00:22:49;;;;;;;13.25;11.10;;;4.60;99.90;;;;;;5005167;28;20038;-84
2021/10/30 00:25:14;;;;;;;13.75;10.98;;;4.60;99.90;;;;;;5011746;28;20034;-83
2021/10/30 00:27:42;;;;;;;13.45;11.10;;;4.50;99.90;;;;;;5019276;28;20242;-84
2021/10/30 00:30:09;;;;;;;14.18;11.43;;;4.60;99.90;;;;;;5020297;28;20026;-84
2021/10/30 00:32:35;;;;;;;13.38;10.40;;;4.70;99.90;;;;;;5019821;28;20093;-84
2021/10/30 00:35:02;;;;;;;12.82;9.93;;;4.80;99.90;;;;;;5020216;28;20034;-84
2021/10/30 00:37:28;;;;;;;13.55;10.57;;;4.90;99.90;;;;;;5019365;28;20022;-83
2021/10/30 00:39:53;;;;;;;14.52;10.23;;;5.00;99.90;;;;;;5020323;28;20033;-84
2021/10/30 00:42:19;;;;;;;12.50;9.23;;;5.00;99.90;;;;;;5020500;28;20038;-84
2021/10/30 00:44:45;;;;;;;10.90;9.32;;;5.00;99.90;;;;;;5007332;28;20073;-84
2021/10/30 00:47:11;;;;;;;11.73;9.40;;;5.10;99.90;;;;;;5010411;28;20030;-84
2021/10/30 00:49:37;;;;;;;12.43;9.43;;;5.00;99.90;;;;;;5018597;28;20191;-84
2021/10/30 00:52:03;;;;;;;10.13;8.63;;;5.00;99.90;;;;;;5007708;28;20037;-84
2021/10/30 00:54:31;;;;;;;9.73;8.73;;;5.00;99.90;;;;;;5018826;28;20029;-83
2021/10/30 00:56:57;;;;;;;10.25;8.10;;;5.10;99.90;;;;;;5018476;28;20025;-83
2021/10/30 00:59:23;;;;;;;10.85;9.02;;;5.10;99.90;;;;;;5019568;28;20329;-84
2021/10/30 01:01:51;;;;;;;11.23;9.73;;;5.10;99.90;;;;;;5002245;28;20115;-84
2021/10/30 01:04:18;;;;;;;13.23;10.90;;;5.00;99.90;;;;;;5019732;28;20074;-84
2021/10/30 01:06:47;;;;;;;14.70;11.05;;;4.80;99.90;;;;;;5016316;28;20072;-83
2021/10/30 01:09:13;;;;;;;14.20;10.85;;;4.70;99.90;;;;;;5000067;28;20022;-83
2021/10/30 01:11:41;;;;;;;14.93;11.43;;;4.60;99.90;;;;;;5001985;28;20084;-83
2021/10/30 01:14:07;;;;;;;13.60;11.25;;;4.50;99.90;;;;;;5019620;28;20038;-83
2021/10/30 01:16:33;;;;;;;12.80;10.38;;;4.50;99.90;;;;;;5006354;28;20029;-83
2021/10/30 01:19:00;;;;;;;13.43;10.77;;;4.50;99.90;;;;;;5017826;28;20042;-83
2021/10/30 01:21:28;;;;;;;12.65;10.20;;;4.70;99.90;;;;;;5019143;28;20006;-83
2021/10/30 01:23:54;;;;;;;11.80;9.95;;;4.70;99.90;;;;;;5019466;28;20019;-83
2021/10/30 01:26:21;;;;;;;13.93;10.60;;;4.80;99.90;;;;;;5020416;28;20033;-83
2021/10/30 01:28:47;;;;;;;13.40;10.55;;;4.80;99.90;;;;;;5009530;28;20026;-83
2021/10/30 01:31:13;;;;;;;12.65;10.07;;;4.80;99.90;;;;;;5023320;28;20026;-83
2021/10/30 01:33:42;;;;;;;13.55;9.65;;;4.80;99.90;;;;;;5021878;28;20536;-83
2021/10/30 01:36:09;;;;;;;12.27;9.95;;;4.90;99.90;;;;;;5022001;28;20026;-83
2021/10/30 01:38:35;;;;;;;11.77;9.80;;;5.00;99.90;;;;;;5003087;28;20022;-84
2021/10/30 01:41:00;;;;;;;13.30;9.63;;;5.00;99.90;;;;;;5002615;28;20115;-83
2021/10/30 01:43:26;;;;;;;16.10;11.90;;;5.00;99.90;;;;;;4990812;28;20145;-83
2021/10/30 01:45:52;;;;;;;13.73;10.73;;;4.80;99.90;;;;;;4980152;28;20026;-83
2021/10/30 01:48:18;;;;;;;13.10;10.38;;;4.70;99.90;;;;;;5004888;28;20030;-83
2021/10/30 01:50:43;;;;;;;11.75;9.50;;;4.60;99.90;;;;;;5000744;28;20102;-83
2021/10/30 01:53:09;;;;;;;13.25;10.50;;;4.60;99.90;;;;;;5000685;28;20479;-83
2021/10/30 01:55:38;;;;;;;11.52;9.30;;;4.60;99.90;;;;;;5000876;28;20026;-83
2021/10/30 01:58:05;;;;;;;13.50;10.45;;;4.70;99.90;;;;;;5013018;28;20044;-83
2021/10/30 02:00:32;;;;;;;16.58;11.35;;;4.70;99.90;;;;;;5020885;28;20038;-83
2021/10/30 02:02:57;;;;;;;19.15;11.90;;;4.70;99.90;;;;;;5021353;28;20022;-83
2021/10/30 02:05:23;;;;;;;16.63;12.70;;;4.60;99.90;;;;;;5021544;28;20025;-83
2021/10/30 02:07:49;;;;;;;17.77;12.40;;;4.60;99.90;;;;;;4996048;28;20037;-83
2021/10/30 02:10:15;;;;;;;14.10;11.20;;;4.40;99.90;;;;;;4985518;28;20550;-84
2021/10/30 02:12:42;;;;;;;13.20;10.48;;;4.30;99.90;;;;;;5001291;28;20032;-83
2021/10/30 02:15:09;;;;;;;13.13;10.30;;;4.20;99.90;;;;;;5002299;28;20022;-83
2021/10/30 02:17:35;;;;;;;12.10;9.23;;;4.10;99.90;;;;;;4988498;28;20093;-83
2021/10/30 02:20:01;;;;;;;11.13;9.07;;;4.00;99.90;;;;;;5002032;28;20038;-83
2021/10/30 02:22:26;;;;;;;12.75;9.05;;;4.10;99.90;;;;;;5017308;28;20082;-83
2021/10/30 02:24:53;;;;;;;9.43;7.88;;;4.20;99.90;;;;;;5002321;28;20026;-84
2021/10/30 02:27:19;;;;;;;9.25;7.03;;;4.30;99.90;;;;;;5016503;28;20031;-83
2021/10/30 02:29:45;;;;;;;10.25;7.90;;;4.40;99.90;;;;;;5000435;28;20026;-84
2021/10/30 02:32:12;;;;;;;9.15;7.43;;;4.30;99.90;;;;;;4983870;28;20078;-84
2021/10/30 02:34:39;;;;;;;8.13;6.97;;;4.20;99.90;;;;;;4983061;28;20022;-84
2021/10/30 02:37:05;;;;;;;8.32;6.82;;;4.20;99.90;;;;;;4984047;28;20026;-83
2021/10/30 02:39:31;;;;;;;7.65;6.47;;;4.30;99.90;;;;;;5000513;28;20030;-84
2021/10/30 02:41:57;;;;;;;6.85;5.90;;;4.30;99.90;;;;;;4983193;28;20023;-83
2021/10/30 02:44:23;;;;;;;8.15;5.78;;;4.40;99.90;;;;;;5000561;28;20491;-83
2021/10/30 02:46:49;;;;;;;6.80;5.65;;;4.40;99.90;;;;;;5013164;28;20050;-84
2021/10/30 02:49:15;;;;;;;6.97;5.85;;;4.40;99.90;;;;;;5033389;28;20034;-84
2021/10/30 02:51:40;;;;;;;6.13;5.53;;;4.40;99.90;;;;;;5032493;28;20054;-82
2021/10/30 02:54:06;;;;;;;5.88;5.05;;;4.50;99.90;;;;;;5034238;28;20188;-83
2021/10/30 02:56:32;;;;;;;7.32;6.55;;;4.60;99.90;;;;;;5034136;28;20072;-83
2021/10/30 02:58:57;;;;;;;6.80;5.90;;;4.60;99.90;;;;;;5024706;28;20022;-83
2021/10/30 03:01:24;;;;;;;7.13;6.15;;;4.60;99.90;;;;;;4997783;28;20090;-83
2021/10/30 03:03:50;;;;;;;6.95;6.18;;;4.60;99.90;;;;;;5015180;28;20033;-83
2021/10/30 03:06:16;;;;;;;7.50;5.60;;;4.50;99.90;;;;;;4997491;28;20464;-83
2021/10/30 03:08:42;;;;;;;7.43;6.05;;;4.50;99.90;;;;;;5014316;28;20006;-83
2021/10/30 03:11:07;;;;;;;7.22;6.43;;;4.50;99.90;;;;;;5027409;28;20475;-82
2021/10/30 03:13:33;;;;;;;7.57;6.00;;;4.50;99.90;;;;;;5011838;28;20026;-83
2021/10/30 03:15:59;;;;;;;6.43;5.28;;;4.50;99.90;;;;;;5008525;28;20049;-83
2021/10/30 03:18:25;;;;;;;6.85;5.32;;;4.50;99.90;;;;;;5013554;28;20007;-83
2021/10/30 03:20:50;;;;;;;8.10;6.53;;;4.50;99.90;;;;;;5019145;28;20045;-83
2021/10/30 03:23:16;;;;;;;8.68;6.28;;;4.50;99.90;;;;;;5013726;28;20471;-84
2021/10/30 03:25:42;;;;;;;7.75;6.25;;;4.40;99.90;;;;;;4996516;28;20041;-84
2021/10/30 03:28:08;;;;;;;10.05;7.60;;;4.40;99.90;;;;;;5014295;28;20087;-84
2021/10/30 03:30:36;;;;;;;8.55;6.90;;;4.40;99.90;;;;;;5004383;28;20040;-83
2021/10/30 03:33:01;;;;;;;10.93;7.70;;;4.40;99.90;;;;;;5033128;28;20021;-83
2021/10/30 03:35:27;;;;;;;9.25;7.47;;;4.40;99.90;;;;;;5012255;28;20026;-83
2021/10/30 03:37:54;;;;;;;9.75;7.68;;;4.50;99.90;;;;;;5021914;28;20037;-83
2021/10/30 03:40:20;;;;;;;9.27;7.70;;;4.30;99.90;;;;;;5020101;28;20042;-85
2021/10/30 03:42:46;;;;;;;9.38;7.22;;;4.40;99.90;;;;;;5002882;28;20131;-84
2021/10/30 03:45:12;;;;;;;10.88;8.27;;;4.40;99.90;;;;;;5019942;28;20061;-84
2021/10/30 03:47:38;;;;;;;11.52;8.60;;;4.50;99.90;;;;;;5001180;28;20042;-83
2021/10/30 03:50:04;;;;;;;14.50;10.57;;;4.40;99.90;;;;;;5001160;28;20030;-83
2021/10/30 03:52:30;;;;;;;16.17;9.95;;;4.50;99.90;;;;;;4985712;28;20027;-84
2021/10/30 03:54:56;;;;;;;16.55;10.13;;;4.50;99.90;;;;;;4986016;28;20101;-83
2021/10/30 03:57:22;;;;;;;14.57;10.02;;;4.40;99.90;;;;;;4992595;28;20031;-81
2021/10/30 03:59:48;;;;;;;16.52;10.48;;;4.30;99.90;;;;;;4987996;28;20121;-84
2021/10/30 04:02:14;;;;;;;15.43;10.63;;;4.30;99.90;;;;;;4985632;28;20038;-84
2021/10/30 04:04:39;;;;;;;13.55;9.02;;;4.40;99.90;;;;;;5003435;28;20030;-84
2021/10/30 04:07:05;;;;;;;12.35;8.85;;;4.40;99.90;;;;;;4987427;28;20022;-85
2021/10/30 04:09:31;;;;;;;11.60;8.27;;;4.30;99.90;;;;;;5007238;28;20030;-85
2021/10/30 04:11:57;;;;;;;11.13;8.10;;;4.30;99.90;;;;;;4991018;28;20034;-85
2021/10/30 04:14:22;;;;;;;10.52;7.18;;;4.20;99.90;;;;;;5006243;28;20023;-85
2021/10/30 04:16:48;;;;;;;9.80;7.15;;;4.20;99.90;;;;;;5000553;28;20018;-84
2021/10/30 04:19:15;;;;;;;12.07;8.00;;;4.10;99.90;;;;;;5000551;28;20014;-84
2021/10/30 04:21:41;;;;;;;9.73;7.53;;;4.10;99.90;;;;;;4981479;28;20038;-85
2021/10/30 04:24:08;;;;;;;11.07;7.13;;;4.10;99.90;;;;;;4980241;28;20030;-83
2021/10/30 04:26:33;;;;;;;9.25;6.47;;;4.10;99.90;;;;;;4981138;28;20086;-84
2021/10/30 04:29:00;;;;;;;8.50;6.72;;;4.20;99.90;;;;;;5007232;28;20014;-85
2021/10/30 04:31:27;;;;;;;8.52;6.38;;;4.20;99.90;;;;;;5016804;28;20041;-85
2021/10/30 04:33:58;;;;;;;7.65;6.13;;;4.20;99.90;;;;;;5031738;28;20073;-85
2021/10/30 04:36:26;;;;;;;8.23;5.63;;;4.20;99.90;;;;;;5024366;28;20395;-85
2021/10/30 04:38:55;;;;;;;6.72;5.65;;;4.10;99.90;;;;;;5028999;28;20129;-85
2021/10/30 04:41:21;;;;;;;7.43;5.47;;;4.00;99.90;;;;;;5035538;28;20105;-84
2021/10/30 04:43:48;;;;;;;7.80;5.93;;;3.90;99.90;;;;;;5044516;22;20061;-78
2021/10/30 04:46:16;;;;;;;9.15;6.63;;;3.90;99.90;;;;;;5034000;28;20092;-79
2021/10/30 04:48:42;;;;;;;7.20;5.35;;;3.80;99.90;;;;;;5020140;28;20025;-78
2021/10/30 04:51:08;;;;;;;7.45;5.68;;;3.80;99.90;;;;;;5039060;28;20108;-79
2021/10/30 04:53:36;;;;;;;8.02;6.15;;;3.80;99.90;;;;;;5015663;28;20505;-78
2021/10/30 04:56:06;;;;;;;9.88;6.72;;;3.80;99.90;;;;;;5000908;28;20026;-78
2021/10/30 04:58:32;;;;;;;10.63;7.07;;;3.90;99.90;;;;;;5017606;28;20448;-82
2021/10/30 05:00:58;;;;;;;9.93;7.50;;;3.90;99.90;;;;;;5019077;28;20025;-78
2021/10/30 05:03:24;;;;;;;9.27;6.85;;;3.90;99.90;;;;;;5018004;28;20116;-78
2021/10/30 05:05:51;;;;;;;11.32;8.02;;;3.90;99.90;;;;;;5018250;28;20502;-78
2021/10/30 05:08:16;;;;;;;10.05;6.93;;;4.00;99.90;;;;;;5017122;28;20025;-78
2021/10/30 05:10:42;;;;;;;9.77;7.28;;;4.00;99.90;;;;;;5000405;28;20030;-77
2021/10/30 05:13:08;;;;;;;9.27;7.03;;;4.00;99.90;;;;;;5000533;28;20424;-78
2021/10/30 05:15:34;;;;;;;10.10;7.10;;;4.10;99.90;;;;;;5017672;28;20101;-78
2021/10/30 05:18:00;;;;;;;9.15;7.75;;;4.00;99.90;;;;;;5023113;28;20081;-78
2021/10/30 05:20:27;;;;;;;9.88;7.68;;;3.90;99.90;;;;;;5032400;28;20037;-77
2021/10/30 05:22:52;;;;;;;9.20;6.93;;;3.80;99.90;;;;;;5032331;28;20041;-78
2021/10/30 05:25:18;;;;;;;8.55;6.22;;;3.80;99.90;;;;;;5005735;28;20045;-79
2021/10/30 05:27:44;;;;;;;10.43;7.07;;;3.90;99.90;;;;;;5025683;28;20053;-77
2021/10/30 05:30:10;;;;;;;9.75;6.95;;;3.80;99.90;;;;;;5007194;28;20502;-77
2021/10/30 05:32:35;;;;;;;10.15;6.57;;;3.70;99.90;;;;;;5017263;28;20026;-77
2021/10/30 05:35:02;;;;;;;8.18;5.82;;;3.70;99.90;;;;;;5016047;28;20034;-78
2021/10/30 05:37:28;;;;;;;7.25;5.82;;;3.70;99.90;;;;;;5018767;28;20386;-79
2021/10/30 05:39:54;;;;;;;5.82;4.97;;;3.60;99.90;;;;;;5018594;28;20085;-80
2021/10/30 05:42:20;;;;;;;7.32;5.93;;;3.60;99.90;;;;;;5018272;28;20030;-79
2021/10/30 05:44:46;;;;;;;12.05;7.80;;;3.60;99.90;;;;;;5000371;28;20412;-79
2021/10/30 05:47:13;;;;;;;10.48;7.50;;;3.60;99.90;;;;;;5010412;28;20025;-78
2021/10/30 05:49:41;;;;;;;9.00;6.95;;;3.50;99.90;;;;;;5017121;28;20061;-78
2021/10/30 05:52:08;;;;;;;10.25;7.68;;;3.50;99.90;;;;;;5016628;28;20048;-78
2021/10/30 05:54:34;;;;;;;10.77;7.97;;;3.50;99.90;;;;;;5017065;28;20129;-79
2021/10/30 05:57:00;;;;;;;11.75;8.07;;;3.40;99.90;;;;;;5018930;28;20145;-79
2021/10/30 05:59:30;;;;;;;13.27;7.43;;;3.50;99.90;;;;;;5000822;28;20058;-79
2021/10/30 06:01:55;;;;;;;11.02;7.03;;;3.50;99.90;;;;;;5019159;28;20529;-77
2021/10/30 06:04:22;;;;;;;11.32;7.72;;;3.50;99.90;;;;;;5003407;28;20061;-79
2021/10/30 06:06:48;;;;;;;8.68;6.53;;;3.50;99.90;;;;;;5023921;28;20037;-78
2021/10/30 06:09:15;;;;;;;10.15;6.20;;;3.50;99.90;;;;;;5026054;28;20081;-78
2021/10/30 06:11:41;;;;;;;8.10;6.15;;;3.60;99.90;;;;;;5021565;28;20044;-79
2021/10/30 06:14:09;;;;;;;9.18;6.47;;;3.70;99.90;;;;;;5017632;28;20018;-79
2021/10/30 06:16:36;;;;;;;8.88;6.30;;;3.60;99.90;;;;;;5017633;28;20065;-78
2021/10/30 06:19:01;;;;;;;9.48;6.75;;;3.60;99.90;;;;;;4999367;28;20029;-78
2021/10/30 06:21:27;;;;;;;6.97;5.80;;;3.60;99.90;;;;;;4998892;28;20030;-77
2021/10/30 06:23:54;;;;;;;9.82;7.13;;;3.70;99.90;;;;;;5014640;28;20052;-78
2021/10/30 06:26:20;;;;;;;9.02;7.43;;;3.60;99.90;;;;;;5016864;28;20444;-78
2021/10/30 06:28:47;;;;;;;12.75;7.00;;;3.50;99.90;;;;;;4999966;28;20044;-76
2021/10/30 06:31:14;;;;;;;11.70;7.70;;;3.40;99.90;;;;;;5003209;28;20382;-77
2021/10/30 06:33:41;;;;;;;10.43;7.95;;;3.40;99.90;;;;;;5000780;28;20022;-77
2021/10/30 06:36:07;;;;;;;11.65;7.05;;;3.40;99.90;;;;;;5003208;28;20032;-77
2021/10/30 06:38:33;;;;;;;11.48;8.00;;;3.30;99.90;;;;;;5022129;28;20074;-77
2021/10/30 06:41:01;;;;;;;12.13;7.32;;;3.10;99.90;;;;;;5001757;28;20022;-78
2021/10/30 06:43:28;;;;;;;10.05;7.07;;;3.00;99.90;;;;;;5016717;28;20046;-78
2021/10/30 06:45:54;;;;;;;8.30;7.13;;;2.80;99.90;;;;;;4997901;28;20391;-79
2021/10/30 06:48:20;;;;;;;11.02;7.15;;;2.70;99.90;;;;;;4997595;28;20032;-78
2021/10/30 06:50:46;;;;;;;9.63;6.55;;;2.70;99.90;;;;;;5015861;28;20026;-78
2021/10/30 06:53:11;;;;;;;9.52;6.65;;;2.80;99.90;;;;;;4998167;28;20084;-78
2021/10/30 06:55:37;;;;;;;6.53;5.75;;;2.90;99.90;;;;;;5015595;28;20474;-77
2021/10/30 06:58:03;;;;;;;7.95;6.10;;;3.00;99.90;;;;;;5015780;28;20030;-78
2021/10/30 07:00:28;;;;;;;9.85;7.50;;;3.00;99.90;;;;;;5015985;28;20022;-77
2021/10/30 07:02:54;;;;;;;8.57;6.90;;;3.00;99.90;;;;;;5017228;28;20490;-78
2021/10/30 07:05:21;;;;;;;9.18;7.13;;;3.10;99.90;;;;;;5018040;28;20117;-78
2021/10/30 07:07:48;;;;;;;9.55;7.13;;;3.20;99.90;;;;;;5001320;28;20143;-78
2021/10/30 07:10:14;;;;;;;8.57;6.55;;;3.30;99.90;;;;;;5023131;28;20080;-77
2021/10/30 07:12:39;;;;;;;8.82;6.55;;;3.40;99.90;;;;;;5025194;28;20025;-78
2021/10/30 07:15:09;;;;;;;9.00;6.30;;;3.50;99.90;;;;;;5004357;28;20026;-78
2021/10/30 07:17:34;;;;;;;7.38;5.50;;;3.50;99.90;;;;;;5004199;28;20359;-77
2021/10/30 07:20:00;;;;;;;7.50;5.95;;;3.70;99.90;;;;;;5003820;28;20033;-76
2021/10/30 07:22:26;;;;;;;7.10;5.90;;;3.80;99.90;;;;;;5004498;28;20036;-77
2021/10/30 07:24:52;;;;;;;7.72;6.00;;;3.90;99.90;;;;;;5020817;28;20478;-78
2021/10/30 07:27:18;;;;;;;8.18;6.13;;;3.80;99.90;;;;;;5005539;28;20456;-78
2021/10/30 07:29:48;;;;;;;8.00;5.63;;;3.80;99.90;;;;;;5023912;28;20045;-78
2021/10/30 07:32:17;;;;;;;6.75;5.55;;;3.80;99.90;;;;;;5023912;28;20026;-77
2021/10/30 07:34:43;;;;;;;8.63;5.35;;;3.80;99.90;;;;;;5020769;28;20026;-78
2021/10/30 07:37:09;;;;;;;5.28;4.57;;;3.90;99.90;;;;;;5015315;28;20022;-77
2021/10/30 07:39:34;;;;;;;5.65;4.68;;;4.10;99.90;;;;;;5018485;28;20451;-78
2021/10/30 07:42:01;;;;;;;5.05;4.50;;;4.40;99.90;;;;;;5015089;28;20025;-78
2021/10/30 07:44:27;;;;;;;5.88;4.88;;;4.60;99.90;;;;;;5014998;28;20044;-78
2021/10/30 07:46:53;;;;;;;6.05;4.70;;;4.70;99.90;;;;;;5015098;28;20034;-78
2021/10/30 07:49:19;;;;;;;6.10;5.38;;;4.60;99.90;;;;;;5016031;28;20041;-77
2021/10/30 07:51:44;;;;;;;7.00;5.90;;;4.50;99.90;;;;;;4997960;28;20021;-78
2021/10/30 07:54:10;;;;;;;7.20;5.85;;;4.30;99.90;;;;;;4998997;28;20093;-78
2021/10/30 07:56:39;;;;;;;6.90;5.53;;;4.20;99.90;;;;;;5016594;28;20018;-78
2021/10/30 07:59:08;;;;;;;7.13;5.82;;;4.50;99.90;;;;;;5017315;28;20113;-79
2021/10/30 08:01:35;;;;;;;8.32;5.30;;;4.80;99.90;;;;;;5017108;28;20439;-78
2021/10/30 08:04:01;;;;;;;5.80;4.95;;;5.20;99.90;;;;;;5018581;28;20109;-77
2021/10/30 08:06:27;;;;;;;5.25;4.75;;;5.40;99.90;;;;;;5020974;28;20030;-77
2021/10/30 08:08:53;;;;;;;7.30;5.68;;;5.50;99.90;;;;;;5002656;28;20126;-78
2021/10/30 08:11:19;;;;;;;6.80;5.40;;;5.30;99.90;;;;;;5021238;28;20034;-79
2021/10/30 08:13:44;;;;;;;6.97;5.72;;;5.30;99.90;;;;;;5004040;28;20022;-78
2021/10/30 08:16:10;;;;;;;6.50;4.97;;;5.30;99.90;;;;;;5022173;28;20061;-77
2021/10/30 08:18:36;;;;;;;7.53;5.78;;;5.40;99.90;;;;;;5019258;28;20022;-78
2021/10/30 08:21:02;;;;;;;6.72;5.45;;;5.60;99.90;;;;;;5024053;28;20029;-78
2021/10/30 08:23:27;;;;;;;6.97;5.88;;;5.80;99.90;;;;;;5021786;28;20475;-79
2021/10/30 08:25:53;;;;;;;6.63;5.75;;;5.90;99.90;;;;;;5020054;28;20026;-78
2021/10/30 08:28:19;;;;;;;6.18;5.28;;;6.00;99.90;;;;;;5001993;28;20022;-79
2021/10/30 08:30:49;;;;;;;5.70;5.00;;;6.20;99.90;;;;;;5022469;28;20045;-79
2021/10/30 08:33:21;;;;;;;6.45;4.90;;;6.40;99.70;;;;;;5002209;28;20445;-79
2021/10/30 08:35:46;;;;;;;7.45;5.63;;;6.50;99.30;;;;;;5002258;28;20071;-78
2021/10/30 08:38:13;;;;;;;6.40;5.18;;;6.70;98.80;;;;;;5001931;28;20125;-79
2021/10/30 08:40:40;;;;;;;6.55;5.10;;;6.80;98.20;;;;;;5023387;28;20029;-78
2021/10/30 08:43:17;;;;;;;5.65;4.88;;;7.00;98.30;;;;;;5002349;28;20030;-78
2021/10/30 08:45:43;;;;;;;5.78;4.75;;;7.20;96.70;;;;;;5018405;28;20033;-77
2021/10/30 08:48:10;;;;;;;5.22;4.55;;;7.30;96.80;;;;;;5018965;28;20051;-77
2021/10/30 08:50:36;;;;;;;4.75;3.78;;;7.70;96.70;;;;;;5019385;28;20018;-78
2021/10/30 08:53:02;;;;;;;4.22;3.83;;;8.00;95.90;;;;;;5018935;28;20117;-78
2021/10/30 08:55:29;;;;;;;5.35;4.60;;;8.20;95.20;;;;;;5002801;28;20030;-78
2021/10/30 08:58:05;;;;;;;4.35;3.95;;;8.30;94.50;;;;;;5001931;28;20045;-79
2021/10/30 09:00:31;;;;;;;4.38;3.97;;;8.40;93.90;;;;;;4998927;28;20085;-79
2021/10/30 09:03:00;;;;;;;7.13;4.63;;;8.40;93.20;;;;;;4982223;28;20178;-78
2021/10/30 09:05:28;;;;;;;5.28;4.18;;;8.40;92.20;;;;;;4999588;28;20446;-77
2021/10/30 09:07:55;;;;;;;4.90;4.40;;;8.40;92.20;;;;;;5004404;28;20482;-76
2021/10/30 09:10:24;;;;;;;4.97;4.47;;;8.40;92.30;;;;;;4998333;28;20045;-77
2021/10/30 09:12:53;;;;;;;5.15;4.65;;;8.60;92.60;;;;;;5018193;28;20044;-79
2021/10/30 09:15:29;;;;;;;5.82;5.00;;;8.80;91.10;;;;;;5018849;28;20061;-78
2021/10/30 09:17:55;;;;;;;4.97;4.20;;;8.70;90.80;;;;;;5018913;28;20083;-78
2021/10/30 09:20:37;;;;;;;4.95;3.83;;;8.80;91.30;;;;;;5017407;28;20018;-77
2021/10/30 09:23:08;;;;;;;4.90;4.30;;;9.20;91.30;;;;;;5018549;28;20022;-78
2021/10/30 09:25:34;;;;;;;3.72;3.38;;;9.60;90.50;;;;;;5019328;28;20088;-77
2021/10/30 09:28:01;;;;;;;5.75;4.80;;;10.00;90.00;;;;;;5020460;28;20085;-77
2021/10/30 09:30:31;;;;;;;5.43;4.32;;;10.00;87.00;;;;;;5021322;28;20034;-77
2021/10/30 09:33:05;;;;;;;4.93;4.43;;;10.00;86.80;;;;;;5004087;28;20022;-77
2021/10/30 09:35:41;;;;;;;6.38;4.47;;;10.00;87.10;;;;;;5005338;28;20041;-78
2021/10/30 09:38:25;;;;;;;5.88;4.55;;;10.10;87.20;;;;;;5023737;28;20022;-78
2021/10/30 09:40:51;;;;;;;4.28;3.70;;;10.10;85.60;;;;;;5000969;28;20046;-78
2021/10/30 09:43:21;;;;;;;5.30;4.30;;;10.10;85.80;;;;;;4982241;28;20081;-78
2021/10/30 09:45:52;;;;;;;5.88;4.57;;;10.10;85.50;;;;;;4996343;28;20033;-78
2021/10/30 09:48:24;;;;;;;4.55;4.15;;;10.20;85.90;;;;;;5017960;28;20037;-78
2021/10/30 09:50:54;;;;;;;4.47;3.83;;;10.30;85.30;;;;;;5023221;28;20077;-78
2021/10/30 09:53:26;;;;;;;5.30;4.35;;;10.50;85.20;;;;;;5027582;28;20018;-78
2021/10/30 09:56:04;;;;;;;6.25;4.63;;;10.50;84.20;;;;;;5009221;28;20081;-77
2021/10/30 09:58:41;;;;;;;4.70;3.92;;;10.50;84.20;;;;;;5002861;28;20037;-79
2021/10/30 10:01:20;;;;;;;4.97;4.05;;;10.60;84.40;;;;;;5020945;28;20026;-78
2021/10/30 10:03:48;;;;;;;4.28;3.88;;;10.80;84.20;;;;;;5020337;28;20018;-79
2021/10/30 10:06:17;;;;;;;4.43;3.72;;;11.00;84.10;;;;;;5001292;28;20026;-78
2021/10/30 10:08:44;;;;;;;4.00;3.47;;;11.20;83.10;;;;;;4999888;28;20018;-78
2021/10/30 10:11:12;;;;;;;6.65;3.80;;;11.40;83.10;;;;;;5018505;28;20029;-78
2021/10/30 10:13:41;;;;;;;4.18;3.70;;;11.50;82.00;;;;;;4998565;28;20030;-78
2021/10/30 10:16:13;;;;;;;3.88;3.50;;;11.70;81.90;;;;;;5016182;28;20026;-78
2021/10/30 10:18:59;;;;;;;4.40;3.47;;;11.90;81.00;;;;;;5019226;28;20101;-79
2021/10/30 10:21:32;;;;;;;3.60;3.30;;;11.90;80.50;;;;;;5016211;28;20379;-77
2021/10/30 10:24:18;;;;;;;4.18;3.78;;;12.10;80.80;;;;;;5016037;28;20391;-78
2021/10/30 10:26:51;;;;;;;6.40;3.70;;;12.30;79.50;;;;;;5018310;28;20105;-78
2021/10/30 10:29:32;;;;;;;3.60;3.30;;;12.30;79.50;;;;;;5016596;28;20022;-78
2021/10/30 10:32:18;;;;;;;3.60;3.30;;;12.50;79.40;;;;;;5016985;28;20405;-78
2021/10/30 10:34:47;;;;;;;3.92;3.17;;;12.80;79.00;;;;;;5016434;28;20520;-78
2021/10/30 10:37:13;;;;;;;2.95;2.75;;;13.00;78.10;;;;;;4999731;28;20042;-79
2021/10/30 10:39:59;;;;;;;3.33;3.03;;;13.20;77.20;;;;;;5016538;28;20390;-79
2021/10/30 10:42:34;;;;;;;5.22;3.53;;;13.20;76.40;;;;;;5016982;28;20025;-78
2021/10/30 10:45:04;;;;;;;6.03;4.10;;;13.30;75.90;;;;;;5054528;22;20049;-83
2021/10/30 10:47:39;;;;;;;4.78;4.28;;;13.20;75.10;;;;;;4992157;28;20030;-83
2021/10/30 10:50:27;;;;;;;3.83;3.53;;;13.30;75.60;;;;;;5002733;28;20023;-84
2021/10/30 10:52:59;;;;;;;3.83;3.33;;;13.50;75.60;;;;;;4985411;28;20034;-84
2021/10/30 10:55:29;;;;;;;3.30;3.00;;;13.70;75.00;;;;;;5001766;28;20038;-82
2021/10/30 10:58:00;;;;;;;5.90;3.80;;;13.80;75.00;;;;;;5000954;28;20026;-84
2021/10/30 11:00:26;;;;;;;4.93;3.97;;;13.70;74.40;;;;;;4984440;28;20505;-84
2021/10/30 11:02:56;;;;;;;4.82;4.28;;;13.60;74.90;;;;;;4987231;28;20042;-84
2021/10/30 11:05:22;;;;;;;4.53;3.92;;;13.50;75.50;;;;;;5006058;28;20041;-84
2021/10/30 11:07:51;;;;;;;4.47;4.07;;;13.50;76.10;;;;;;5005267;28;20018;-83
2021/10/30 11:10:27;;;;;;;5.03;4.53;;;13.60;76.10;;;;;;5007505;28;20034;-84
2021/10/30 11:13:01;;;;;;;5.78;4.25;;;13.70;76.50;;;;;;4998307;28;20074;-83
2021/10/30 11:15:48;;;;;;;4.05;3.55;;;13.70;76.30;;;;;;4997509;28;20097;-83
2021/10/30 11:18:45;;;;;;;4.00;3.70;;;13.70;76.80;;;;;;4988152;28;20042;-84
2021/10/30 11:21:24;;;;;;;4.25;3.83;;;13.70;76.80;;;;;;4969125;28;20027;-84
2021/10/30 11:23:54;;;;;;;7.57;4.10;;;13.90;76.00;;;;;;4990018;28;20562;-84
2021/10/30 11:26:23;;;;;;;9.02;4.50;;;14.00;76.30;;;;;;5003520;28;20030;-84
2021/10/30 11:28:49;;;;;;;6.38;4.40;;;14.00;75.90;;;;;;5002727;28;20057;-83
2021/10/30 11:31:19;;;;;;;6.10;4.38;;;14.10;76.30;;;;;;5003099;28;20034;-84
2021/10/30 11:34:01;;;;;;;5.25;4.60;;;14.20;75.90;;;;;;5001907;28;20070;-83
2021/10/30 11:36:28;;;;;;;6.28;4.80;;;14.10;76.00;;;;;;4987578;28;20034;-83
2021/10/30 11:38:56;;;;;;;4.93;3.60;;;14.20;76.80;;;;;;5004689;28;20037;-84
2021/10/30 11:41:28;;;;;;;5.50;4.43;;;14.30;76.40;;;;;;5004078;28;20034;-84
2021/10/30 11:44:01;;;;;;;3.80;3.40;;;14.30;76.40;;;;;;5003157;28;20031;-83
2021/10/30 11:46:27;;;;;;;4.43;4.03;;;14.40;76.40;;;;;;5010952;28;20121;-83
2021/10/30 11:48:56;;;;;;;4.35;3.95;;;14.40;75.90;;;;;;5001293;28;20080;-83
2021/10/30 11:51:29;;;;;;;4.57;3.90;;;14.40;76.30;;;;;;5003405;28;20523;-85
2021/10/30 11:53:55;;;;;;;3.97;3.60;;;14.50;75.80;;;;;;5009332;28;20037;-85
2021/10/30 11:56:26;;;;;;;3.53;3.22;;;14.60;74.70;;;;;;5002503;28;20022;-84
2021/10/30 11:58:59;;;;;;;3.42;3.13;;;14.50;74.70;;;;;;5003114;28;20038;-84
2021/10/30 12:01:24;;;;;;;2.85;2.65;;;14.60;75.00;;;;;;5017090;28;20232;-83
2021/10/30 12:04:00;;;;;;;5.47;3.97;;;14.70;74.90;;;;;;4992167;28;20026;-83
2021/10/30 12:06:27;;;;;;;3.20;2.58;;;14.80;73.80;;;;;;4987230;28;20034;-83
2021/10/30 12:08:57;;;;;;;2.45;2.25;;;15.00;73.50;;;;;;4967457;28;20031;-83
2021/10/30 12:11:26;;;;;;;5.22;3.33;;;15.20;73.10;;;;;;4984440;28;20098;-84
2021/10/30 12:13:56;;;;;;;4.85;4.15;;;15.40;71.40;;;;;;4993224;28;20045;-83
2021/10/30 12:16:22;;;;;;;3.72;3.33;;;15.40;71.40;;;;;;5023478;28;20030;-83
2021/10/30 12:18:48;;;;;;;6.55;3.95;;;15.30;71.70;;;;;;5003507;28;20479;-83
2021/10/30 12:21:15;;;;;;;4.10;3.70;;;15.20;72.10;;;;;;5000338;28;20038;-83
2021/10/30 12:23:57;;;;;;;5.18;4.32;;;15.20;72.70;;;;;;5001493;28;20046;-82
2021/10/30 12:26:26;;;;;;;6.47;4.60;;;15.30;72.30;;;;;;4994578;28;20018;-83
2021/10/30 12:28:53;;;;;;;5.97;4.20;;;15.20;72.40;;;;;;4996834;28;20082;-83
2021/10/30 12:31:34;;;;;;;4.13;3.72;;;15.30;71.50;;;;;;5000702;28;20019;-83
2021/10/30 12:34:01;;;;;;;6.57;4.80;;;15.20;71.70;;;;;;4997011;28;20027;-85
2021/10/30 12:36:28;;;;;;;3.65;3.33;;;15.10;71.90;;;;;;4983955;28;20122;-85
2021/10/30 12:38:58;;;;;;;6.47;3.83;;;15.10;72.30;;;;;;5001024;28;20042;-85
2021/10/30 12:41:31;;;;;;;6.00;4.65;;;15.10;71.80;;;;;;5000209;28;20034;-85
2021/10/30 12:44:02;;;;;;;4.43;4.03;;;15.20;71.20;;;;;;5015761;28;20026;-85
2021/10/30 12:46:52;;;;;;;5.03;4.40;;;15.30;71.30;;;;;;5009073;28;20501;-87
2021/10/30 12:49:26;;;;;;;7.57;4.97;;;15.30;70.80;;;;;;4984472;28;20034;-85
2021/10/30 12:52:18;;;;;;;5.15;4.53;;;15.40;69.90;;;;;;4979886;28;20023;-85
2021/10/30 12:54:55;;;;;;;5.57;4.65;;;15.30;70.30;;;;;;4981844;28;20035;-84